sensor_id;sensor_type;location;lat;lon;timestamp;P1;durP1;ratioP1;P2;durP2;ratioP2
20802;SDS011;10562;-33.856;151.182;2024-03-23T00:53:07;5.15;;;1.30;;
20802;SDS011;10562;-33.856;151.182;2024-03-23T00:55:39;7.20;;;1.45;;
20802;SDS011;10562;-33.856;151.182;2024-03-23T00:58:08;12.57;;;1.70;;
20802;SDS011;10562;-33.856;151.182;2024-03-23T01:00:42;5.95;;;1.60;;
20802;SDS011;10562;-33.856;151.182;2024-03-23T01:03:13;8.57;;;1.58;;
20802;SDS011;10562;-33.856;151.182;2024-03-23T01:05:44;10.73;;;1.80;;
20802;SDS011;10562;-33.856;151.182;2024-03-23T01:08:14;8.55;;;1.60;;
20802;SDS011;10562;-33.856;151.182;2024-03-23T01:10:53;8.15;;;1.52;;
20802;SDS011;10562;-33.856;151.182;2024-03-23T01:13:23;8.45;;;1.50;;
20802;SDS011;10562;-33.856;151.182;2024-03-23T01:15:54;8.18;;;2.30;;
20802;SDS011;10562;-33.856;151.182;2024-03-23T01:18:25;9.10;;;1.50;;
20802;SDS011;10562;-33.856;151.182;2024-03-23T01:20:56;7.10;;;1.40;;
20802;SDS011;10562;-33.856;151.182;2024-03-23T01:23:25;6.55;;;1.30;;
20802;SDS011;10562;-33.856;151.182;2024-03-23T01:25:56;4.75;;;1.30;;
20802;SDS011;10562;-33.856;151.182;2024-03-23T01:28:25;6.03;;;1.40;;
20802;SDS011;10562;-33.856;151.182;2024-03-23T01:30:56;7.30;;;1.38;;
20802;SDS011;10562;-33.856;151.182;2024-03-23T01:33:27;4.93;;;1.23;;
20802;SDS011;10562;-33.856;151.182;2024-03-23T01:35:58;10.80;;;1.40;;
20802;SDS011;10562;-33.856;151.182;2024-03-23T01:38:27;8.05;;;1.33;;
20802;SDS011;10562;-33.856;151.182;2024-03-23T01:40:58;7.65;;;1.33;;
20802;SDS011;10562;-33.856;151.182;2024-03-23T01:43:27;6.68;;;1.25;;
20802;SDS011;10562;-33.856;151.182;2024-03-23T01:45:58;4.88;;;1.10;;
20802;SDS011;10562;-33.856;151.182;2024-03-23T01:48:29;5.60;;;1.40;;
20802;SDS011;10562;-33.856;151.182;2024-03-23T01:51:00;8.38;;;1.42;;
20802;SDS011;10562;-33.856;151.182;2024-03-23T01:53:30;9.80;;;1.50;;
20802;SDS011;10562;-33.856;151.182;2024-03-23T01:56:00;6.50;;;1.20;;
20802;SDS011;10562;-33.856;151.182;2024-03-23T01:58:31;9.77;;;1.50;;
20802;SDS011;10562;-33.856;151.182;2024-03-23T02:01:02;15.48;;;5.63;;
20802;SDS011;10562;-33.856;151.182;2024-03-23T02:03:33;12.65;;;2.20;;
20802;SDS011;10562;-33.856;151.182;2024-03-23T02:06:05;7.97;;;1.45;;
20802;SDS011;10562;-33.856;151.182;2024-03-23T02:08:36;7.97;;;1.48;;
20802;SDS011;10562;-33.856;151.182;2024-03-23T02:11:06;11.32;;;1.83;;
20802;SDS011;10562;-33.856;151.182;2024-03-23T02:13:36;12.70;;;1.52;;
20802;SDS011;10562;-33.856;151.182;2024-03-23T02:16:09;9.77;;;1.52;;
20802;SDS011;10562;-33.856;151.182;2024-03-23T02:18:41;5.90;;;1.30;;
20802;SDS011;10562;-33.856;151.182;2024-03-23T02:21:12;8.43;;;1.50;;
20802;SDS011;10562;-33.856;151.182;2024-03-23T02:23:43;5.95;;;1.13;;
20802;SDS011;10562;-33.856;151.182;2024-03-23T02:26:14;7.10;;;1.35;;
20802;SDS011;10562;-33.856;151.182;2024-03-23T02:28:43;10.00;;;1.42;;
20802;SDS011;10562;-33.856;151.182;2024-03-23T02:31:14;6.72;;;1.40;;
20802;SDS011;10562;-33.856;151.182;2024-03-23T02:33:44;7.30;;;1.48;;
20802;SDS011;10562;-33.856;151.182;2024-03-23T02:36:14;7.38;;;1.30;;
20802;SDS011;10562;-33.856;151.182;2024-03-23T02:38:45;9.35;;;1.70;;
20802;SDS011;10562;-33.856;151.182;2024-03-23T02:41:16;7.07;;;1.25;;
20802;SDS011;10562;-33.856;151.182;2024-03-23T02:43:49;8.52;;;1.38;;
20802;SDS011;10562;-33.856;151.182;2024-03-23T02:46:20;7.80;;;1.13;;
20802;SDS011;10562;-33.856;151.182;2024-03-23T02:48:49;6.35;;;1.05;;
20802;SDS011;10562;-33.856;151.182;2024-03-23T02:51:20;8.77;;;1.50;;
20802;SDS011;10562;-33.856;151.182;2024-03-23T02:53:51;8.20;;;1.17;;
20802;SDS011;10562;-33.856;151.182;2024-03-23T02:56:22;8.48;;;1.30;;
20802;SDS011;10562;-33.856;151.182;2024-03-23T02:58:51;4.03;;;1.20;;
20802;SDS011;10562;-33.856;151.182;2024-03-23T03:01:21;5.60;;;1.02;;
20802;SDS011;10562;-33.856;151.182;2024-03-23T03:03:51;9.55;;;1.20;;
20802;SDS011;10562;-33.856;151.182;2024-03-23T03:06:25;9.00;;;1.10;;
20802;SDS011;10562;-33.856;151.182;2024-03-23T03:08:56;9.25;;;1.42;;
20802;SDS011;10562;-33.856;151.182;2024-03-23T03:11:27;8.07;;;1.35;;
20802;SDS011;10562;-33.856;151.182;2024-03-23T03:13:56;6.53;;;1.23;;
20802;SDS011;10562;-33.856;151.182;2024-03-23T03:16:27;6.38;;;1.50;;
20802;SDS011;10562;-33.856;151.182;2024-03-23T03:18:56;10.05;;;1.80;;
20802;SDS011;10562;-33.856;151.182;2024-03-23T03:21:27;5.55;;;1.20;;
20802;SDS011;10562;-33.856;151.182;2024-03-23T03:23:58;3.90;;;1.13;;
20802;SDS011;10562;-33.856;151.182;2024-03-23T03:26:29;4.13;;;0.90;;
20802;SDS011;10562;-33.856;151.182;2024-03-23T03:28:58;9.65;;;1.17;;
20802;SDS011;10562;-33.856;151.182;2024-03-23T03:31:29;7.63;;;1.48;;
20802;SDS011;10562;-33.856;151.182;2024-03-23T03:33:58;6.72;;;1.48;;
20802;SDS011;10562;-33.856;151.182;2024-03-23T03:36:29;4.63;;;1.10;;
20802;SDS011;10562;-33.856;151.182;2024-03-23T03:39:00;7.80;;;1.45;;
20802;SDS011;10562;-33.856;151.182;2024-03-23T03:41:32;7.85;;;1.40;;
20802;SDS011;10562;-33.856;151.182;2024-03-23T03:44:01;6.55;;;1.05;;
20802;SDS011;10562;-33.856;151.182;2024-03-23T03:46:32;5.63;;;1.15;;
20802;SDS011;10562;-33.856;151.182;2024-03-23T03:49:01;7.18;;;1.10;;
20802;SDS011;10562;-33.856;151.182;2024-03-23T03:51:32;7.13;;;1.30;;
20802;SDS011;10562;-33.856;151.182;2024-03-23T03:54:03;6.43;;;1.10;;
20802;SDS011;10562;-33.856;151.182;2024-03-23T03:56:34;4.65;;;1.30;;
20802;SDS011;10562;-33.856;151.182;2024-03-23T03:59:03;6.18;;;0.90;;
20802;SDS011;10562;-33.856;151.182;2024-03-23T04:01:34;6.43;;;1.30;;
20802;SDS011;10562;-33.856;151.182;2024-03-23T04:04:03;6.75;;;1.25;;
20802;SDS011;10562;-33.856;151.182;2024-03-23T04:06:34;7.25;;;1.40;;
20802;SDS011;10562;-33.856;151.182;2024-03-23T04:09:05;7.45;;;1.20;;
20802;SDS011;10562;-33.856;151.182;2024-03-23T04:11:36;9.85;;;1.30;;
20802;SDS011;10562;-33.856;151.182;2024-03-23T04:14:05;5.85;;;1.33;;
20802;SDS011;10562;-33.856;151.182;2024-03-23T04:16:36;5.80;;;1.20;;
20802;SDS011;10562;-33.856;151.182;2024-03-23T04:19:06;5.18;;;1.10;;
20802;SDS011;10562;-33.856;151.182;2024-03-23T04:21:37;6.90;;;1.10;;
20802;SDS011;10562;-33.856;151.182;2024-03-23T04:24:08;6.55;;;0.90;;
20802;SDS011;10562;-33.856;151.182;2024-03-23T04:26:41;5.50;;;1.08;;
20802;SDS011;10562;-33.856;151.182;2024-03-23T04:29:12;4.43;;;0.88;;
20802;SDS011;10562;-33.856;151.182;2024-03-23T04:31:42;5.22;;;1.00;;
20802;SDS011;10562;-33.856;151.182;2024-03-23T04:34:12;6.43;;;1.20;;
20802;SDS011;10562;-33.856;151.182;2024-03-23T04:36:42;8.00;;;1.20;;
20802;SDS011;10562;-33.856;151.182;2024-03-23T04:39:14;7.78;;;1.27;;
20802;SDS011;10562;-33.856;151.182;2024-03-23T04:41:45;6.07;;;1.10;;
20802;SDS011;10562;-33.856;151.182;2024-03-23T04:44:16;8.65;;;1.30;;
20802;SDS011;10562;-33.856;151.182;2024-03-23T04:46:47;8.48;;;1.33;;
20802;SDS011;10562;-33.856;151.182;2024-03-23T04:49:18;9.50;;;1.50;;
20802;SDS011;10562;-33.856;151.182;2024-03-23T04:51:48;6.05;;;1.10;;
20802;SDS011;10562;-33.856;151.182;2024-03-23T04:54:21;6.25;;;1.30;;
20802;SDS011;10562;-33.856;151.182;2024-03-23T04:56:55;8.15;;;1.27;;
20802;SDS011;10562;-33.856;151.182;2024-03-23T04:59:25;8.18;;;1.13;;
20802;SDS011;10562;-33.856;151.182;2024-03-23T05:01:55;6.35;;;1.20;;
20802;SDS011;10562;-33.856;151.182;2024-03-23T05:04:26;6.05;;;1.33;;
20802;SDS011;10562;-33.856;151.182;2024-03-23T05:06:55;6.22;;;1.20;;
20802;SDS011;10562;-33.856;151.182;2024-03-23T05:09:28;6.32;;;1.30;;
20802;SDS011;10562;-33.856;151.182;2024-03-23T05:11:57;8.43;;;1.50;;
20802;SDS011;10562;-33.856;151.182;2024-03-23T05:14:28;8.70;;;1.50;;
20802;SDS011;10562;-33.856;151.182;2024-03-23T05:16:59;11.38;;;1.42;;
20802;SDS011;10562;-33.856;151.182;2024-03-23T05:19:29;3.50;;;1.20;;
20802;SDS011;10562;-33.856;151.182;2024-03-23T05:21:59;5.70;;;1.58;;
20802;SDS011;10562;-33.856;151.182;2024-03-23T05:24:30;11.18;;;1.80;;
20802;SDS011;10562;-33.856;151.182;2024-03-23T05:27:01;5.28;;;1.52;;
20802;SDS011;10562;-33.856;151.182;2024-03-23T05:29:30;8.77;;;1.70;;
20802;SDS011;10562;-33.856;151.182;2024-03-23T05:32:01;6.70;;;1.40;;
20802;SDS011;10562;-33.856;151.182;2024-03-23T05:34:30;6.20;;;1.48;;
20802;SDS011;10562;-33.856;151.182;2024-03-23T05:37:01;8.60;;;1.30;;
20802;SDS011;10562;-33.856;151.182;2024-03-23T05:39:32;5.15;;;1.30;;
20802;SDS011;10562;-33.856;151.182;2024-03-23T05:42:03;6.10;;;1.20;;
20802;SDS011;10562;-33.856;151.182;2024-03-23T05:44:32;8.38;;;1.65;;
20802;SDS011;10562;-33.856;151.182;2024-03-23T05:47:04;11.93;;;2.10;;
20802;SDS011;10562;-33.856;151.182;2024-03-23T05:49:33;9.40;;;1.75;;
20802;SDS011;10562;-33.856;151.182;2024-03-23T05:52:04;9.07;;;2.15;;
20802;SDS011;10562;-33.856;151.182;2024-03-23T05:54:35;10.85;;;1.65;;
20802;SDS011;10562;-33.856;151.182;2024-03-23T05:57:06;6.80;;;1.73;;
20802;SDS011;10562;-33.856;151.182;2024-03-23T05:59:38;6.18;;;1.52;;
20802;SDS011;10562;-33.856;151.182;2024-03-23T06:02:09;10.32;;;1.70;;
20802;SDS011;10562;-33.856;151.182;2024-03-23T06:04:38;8.88;;;1.77;;
20802;SDS011;10562;-33.856;151.182;2024-03-23T06:07:09;7.97;;;1.75;;
20802;SDS011;10562;-33.856;151.182;2024-03-23T06:09:42;5.15;;;1.38;;
20802;SDS011;10562;-33.856;151.182;2024-03-23T06:12:12;5.38;;;1.52;;
20802;SDS011;10562;-33.856;151.182;2024-03-23T06:14:42;8.52;;;1.75;;
20802;SDS011;10562;-33.856;151.182;2024-03-23T06:17:14;6.68;;;1.85;;
20802;SDS011;10562;-33.856;151.182;2024-03-23T06:19:44;6.93;;;1.70;;
20802;SDS011;10562;-33.856;151.182;2024-03-23T06:22:15;8.93;;;1.90;;
20802;SDS011;10562;-33.856;151.182;2024-03-23T06:24:46;9.65;;;1.65;;
20802;SDS011;10562;-33.856;151.182;2024-03-23T06:27:17;6.60;;;1.45;;
20802;SDS011;10562;-33.856;151.182;2024-03-23T06:29:46;6.28;;;1.77;;
20802;SDS011;10562;-33.856;151.182;2024-03-23T06:32:17;8.68;;;1.60;;
20802;SDS011;10562;-33.856;151.182;2024-03-23T06:34:47;10.48;;;1.67;;
20802;SDS011;10562;-33.856;151.182;2024-03-23T06:37:17;8.82;;;1.50;;
20802;SDS011;10562;-33.856;151.182;2024-03-23T06:39:49;6.90;;;1.42;;
20802;SDS011;10562;-33.856;151.182;2024-03-23T06:42:19;9.32;;;1.95;;
20802;SDS011;10562;-33.856;151.182;2024-03-23T06:44:48;9.52;;;2.20;;
20802;SDS011;10562;-33.856;151.182;2024-03-23T06:47:19;6.32;;;1.52;;
20802;SDS011;10562;-33.856;151.182;2024-03-23T06:49:48;6.50;;;1.63;;
20802;SDS011;10562;-33.856;151.182;2024-03-23T06:52:19;8.30;;;1.73;;
20802;SDS011;10562;-33.856;151.182;2024-03-23T06:54:50;10.27;;;1.58;;
20802;SDS011;10562;-33.856;151.182;2024-03-23T06:57:21;7.90;;;2.20;;
20802;SDS011;10562;-33.856;151.182;2024-03-23T06:59:50;9.35;;;2.15;;
20802;SDS011;10562;-33.856;151.182;2024-03-23T07:02:21;6.65;;;1.70;;
20802;SDS011;10562;-33.856;151.182;2024-03-23T07:04:50;6.47;;;1.60;;
20802;SDS011;10562;-33.856;151.182;2024-03-23T07:07:21;7.47;;;1.80;;
20802;SDS011;10562;-33.856;151.182;2024-03-23T07:09:52;7.85;;;1.60;;
20802;SDS011;10562;-33.856;151.182;2024-03-23T07:12:23;8.32;;;2.38;;
20802;SDS011;10562;-33.856;151.182;2024-03-23T07:14:52;8.90;;;2.42;;
20802;SDS011;10562;-33.856;151.182;2024-03-23T07:17:23;10.55;;;3.45;;
20802;SDS011;10562;-33.856;151.182;2024-03-23T07:19:52;6.75;;;1.90;;
20802;SDS011;10562;-33.856;151.182;2024-03-23T07:22:23;7.57;;;1.88;;
20802;SDS011;10562;-33.856;151.182;2024-03-23T07:24:54;13.55;;;4.90;;
20802;SDS011;10562;-33.856;151.182;2024-03-23T07:27:25;17.67;;;4.32;;
20802;SDS011;10562;-33.856;151.182;2024-03-23T07:29:55;7.82;;;2.05;;
20802;SDS011;10562;-33.856;151.182;2024-03-23T07:32:25;9.80;;;2.13;;
20802;SDS011;10562;-33.856;151.182;2024-03-23T07:34:55;8.02;;;1.98;;
20802;SDS011;10562;-33.856;151.182;2024-03-23T07:37:25;8.20;;;1.88;;
20802;SDS011;10562;-33.856;151.182;2024-03-23T07:39:56;10.35;;;2.35;;
20802;SDS011;10562;-33.856;151.182;2024-03-23T07:42:27;9.02;;;2.38;;
20802;SDS011;10562;-33.856;151.182;2024-03-23T07:44:57;9.88;;;2.97;;
20802;SDS011;10562;-33.856;151.182;2024-03-23T07:47:27;7.22;;;1.90;;
20802;SDS011;10562;-33.856;151.182;2024-03-23T07:49:57;6.35;;;1.75;;
20802;SDS011;10562;-33.856;151.182;2024-03-23T07:52:28;8.98;;;2.33;;
20802;SDS011;10562;-33.856;151.182;2024-03-23T07:54:59;8.75;;;2.28;;
20802;SDS011;10562;-33.856;151.182;2024-03-23T07:57:30;9.05;;;2.17;;
20802;SDS011;10562;-33.856;151.182;2024-03-23T08:00:00;7.72;;;2.20;;
20802;SDS011;10562;-33.856;151.182;2024-03-23T08:02:31;9.25;;;2.00;;
20802;SDS011;10562;-33.856;151.182;2024-03-23T08:05:00;7.25;;;2.08;;
20802;SDS011;10562;-33.856;151.182;2024-03-23T08:07:31;9.40;;;2.35;;
20802;SDS011;10562;-33.856;151.182;2024-03-23T08:10:02;11.13;;;2.80;;
20802;SDS011;10562;-33.856;151.182;2024-03-23T08:12:33;11.88;;;4.05;;
20802;SDS011;10562;-33.856;151.182;2024-03-23T08:15:02;12.40;;;4.22;;
20802;SDS011;10562;-33.856;151.182;2024-03-23T08:17:33;8.05;;;2.25;;
20802;SDS011;10562;-33.856;151.182;2024-03-23T08:20:03;10.15;;;2.40;;
20802;SDS011;10562;-33.856;151.182;2024-03-23T08:22:34;13.40;;;4.82;;
20802;SDS011;10562;-33.856;151.182;2024-03-23T08:25:06;14.32;;;4.97;;
20802;SDS011;10562;-33.856;151.182;2024-03-23T08:27:37;11.13;;;4.03;;
20802;SDS011;10562;-33.856;151.182;2024-03-23T08:30:07;7.20;;;2.67;;
20802;SDS011;10562;-33.856;151.182;2024-03-23T08:32:38;10.18;;;2.83;;
20802;SDS011;10562;-33.856;151.182;2024-03-23T08:35:07;9.80;;;2.42;;
20802;SDS011;10562;-33.856;151.182;2024-03-23T08:37:38;7.03;;;2.58;;
20802;SDS011;10562;-33.856;151.182;2024-03-23T08:40:10;8.13;;;2.40;;
20802;SDS011;10562;-33.856;151.182;2024-03-23T08:42:41;9.93;;;3.17;;
20802;SDS011;10562;-33.856;151.182;2024-03-23T08:45:10;12.73;;;3.17;;
20802;SDS011;10562;-33.856;151.182;2024-03-23T08:47:41;18.05;;;7.40;;
20802;SDS011;10562;-33.856;151.182;2024-03-23T08:50:10;17.80;;;6.03;;
20802;SDS011;10562;-33.856;151.182;2024-03-23T08:52:41;16.05;;;5.55;;
20802;SDS011;10562;-33.856;151.182;2024-03-23T08:55:12;12.35;;;4.60;;
20802;SDS011;10562;-33.856;151.182;2024-03-23T08:57:43;10.75;;;3.50;;
20802;SDS011;10562;-33.856;151.182;2024-03-23T09:00:12;13.95;;;4.78;;
20802;SDS011;10562;-33.856;151.182;2024-03-23T09:02:44;14.23;;;5.85;;
20802;SDS011;10562;-33.856;151.182;2024-03-23T09:05:16;17.17;;;7.50;;
20802;SDS011;10562;-33.856;151.182;2024-03-23T09:07:46;14.70;;;5.93;;
20802;SDS011;10562;-33.856;151.182;2024-03-23T09:10:19;15.27;;;5.53;;
20802;SDS011;10562;-33.856;151.182;2024-03-23T09:12:50;8.10;;;2.85;;
20802;SDS011;10562;-33.856;151.182;2024-03-23T09:15:19;10.38;;;4.07;;
20802;SDS011;10562;-33.856;151.182;2024-03-23T09:17:52;12.00;;;5.00;;
20802;SDS011;10562;-33.856;151.182;2024-03-23T09:20:22;15.68;;;5.28;;
20802;SDS011;10562;-33.856;151.182;2024-03-23T09:22:56;7.70;;;3.00;;
20802;SDS011;10562;-33.856;151.182;2024-03-23T09:25:27;10.82;;;2.92;;
20802;SDS011;10562;-33.856;151.182;2024-03-23T09:27:58;8.90;;;3.17;;
20802;SDS011;10562;-33.856;151.182;2024-03-23T09:30:27;9.27;;;2.67;;
20802;SDS011;10562;-33.856;151.182;2024-03-23T09:32:58;10.27;;;3.65;;
20802;SDS011;10562;-33.856;151.182;2024-03-23T09:35:27;10.43;;;4.20;;
20802;SDS011;10562;-33.856;151.182;2024-03-23T09:37:58;10.27;;;3.40;;
20802;SDS011;10562;-33.856;151.182;2024-03-23T09:40:29;15.70;;;5.60;;
20802;SDS011;10562;-33.856;151.182;2024-03-23T09:43:01;11.43;;;3.92;;
20802;SDS011;10562;-33.856;151.182;2024-03-23T09:45:34;6.15;;;2.30;;
20802;SDS011;10562;-33.856;151.182;2024-03-23T09:48:07;6.72;;;2.40;;
20802;SDS011;10562;-33.856;151.182;2024-03-23T09:50:38;6.80;;;2.20;;
20802;SDS011;10562;-33.856;151.182;2024-03-23T09:53:10;8.10;;;2.35;;
20802;SDS011;10562;-33.856;151.182;2024-03-23T09:55:42;10.98;;;2.17;;
20802;SDS011;10562;-33.856;151.182;2024-03-23T09:58:16;7.00;;;2.30;;
20802;SDS011;10562;-33.856;151.182;2024-03-23T10:00:46;8.20;;;2.50;;
20802;SDS011;10562;-33.856;151.182;2024-03-23T10:03:16;8.55;;;2.30;;
20802;SDS011;10562;-33.856;151.182;2024-03-23T10:05:46;7.82;;;2.50;;
20802;SDS011;10562;-33.856;151.182;2024-03-23T10:08:29;6.50;;;2.20;;
20802;SDS011;10562;-33.856;151.182;2024-03-23T10:11:01;9.45;;;2.33;;
20802;SDS011;10562;-33.856;151.182;2024-03-23T10:13:43;5.65;;;2.10;;
20802;SDS011;10562;-33.856;151.182;2024-03-23T10:16:13;7.88;;;2.40;;
20802;SDS011;10562;-33.856;151.182;2024-03-23T10:18:53;8.45;;;2.83;;
20802;SDS011;10562;-33.856;151.182;2024-03-23T10:21:22;7.13;;;2.60;;
20802;SDS011;10562;-33.856;151.182;2024-03-23T10:23:55;8.02;;;2.58;;
20802;SDS011;10562;-33.856;151.182;2024-03-23T10:26:36;7.60;;;2.60;;
20802;SDS011;10562;-33.856;151.182;2024-03-23T10:29:07;5.75;;;2.40;;
20802;SDS011;10562;-33.856;151.182;2024-03-23T10:31:38;7.55;;;2.50;;
20802;SDS011;10562;-33.856;151.182;2024-03-23T10:34:12;7.75;;;2.65;;
20802;SDS011;10562;-33.856;151.182;2024-03-23T10:36:42;6.43;;;2.67;;
20802;SDS011;10562;-33.856;151.182;2024-03-23T10:39:13;7.13;;;2.30;;
20802;SDS011;10562;-33.856;151.182;2024-03-23T10:41:45;6.47;;;2.88;;
20802;SDS011;10562;-33.856;151.182;2024-03-23T10:44:19;8.43;;;3.00;;
20802;SDS011;10562;-33.856;151.182;2024-03-23T10:46:51;7.63;;;2.20;;
20802;SDS011;10562;-33.856;151.182;2024-03-23T10:49:26;7.10;;;2.45;;
20802;SDS011;10562;-33.856;151.182;2024-03-23T10:51:57;6.95;;;2.65;;
20802;SDS011;10562;-33.856;151.182;2024-03-23T10:54:28;7.32;;;2.67;;
20802;SDS011;10562;-33.856;151.182;2024-03-23T10:57:02;6.65;;;2.92;;
20802;SDS011;10562;-33.856;151.182;2024-03-23T10:59:36;7.35;;;2.72;;
20802;SDS011;10562;-33.856;151.182;2024-03-23T11:02:06;10.13;;;2.90;;
20802;SDS011;10562;-33.856;151.182;2024-03-23T11:04:47;8.95;;;3.00;;
20802;SDS011;10562;-33.856;151.182;2024-03-23T11:07:31;8.77;;;3.40;;
20802;SDS011;10562;-33.856;151.182;2024-03-23T11:10:02;11.20;;;4.32;;
20802;SDS011;10562;-33.856;151.182;2024-03-23T11:12:57;10.90;;;5.22;;
20802;SDS011;10562;-33.856;151.182;2024-03-23T11:15:48;8.45;;;3.40;;
20802;SDS011;10562;-33.856;151.182;2024-03-23T11:18:20;7.22;;;3.58;;
20802;SDS011;10562;-33.856;151.182;2024-03-23T11:20:51;10.98;;;3.88;;
20802;SDS011;10562;-33.856;151.182;2024-03-23T11:23:27;10.35;;;3.40;;
20802;SDS011;10562;-33.856;151.182;2024-03-23T11:25:58;8.15;;;3.20;;
20802;SDS011;10562;-33.856;151.182;2024-03-23T11:28:29;10.93;;;4.13;;
20802;SDS011;10562;-33.856;151.182;2024-03-23T11:31:00;8.85;;;3.60;;
20802;SDS011;10562;-33.856;151.182;2024-03-23T11:33:36;7.30;;;4.20;;
20802;SDS011;10562;-33.856;151.182;2024-03-23T11:36:07;7.75;;;4.18;;
20802;SDS011;10562;-33.856;151.182;2024-03-23T11:38:36;12.73;;;3.78;;
20802;SDS011;10562;-33.856;151.182;2024-03-23T11:41:07;7.68;;;4.28;;
20802;SDS011;10562;-33.856;151.182;2024-03-23T11:43:38;8.60;;;4.03;;
20802;SDS011;10562;-33.856;151.182;2024-03-23T11:46:09;7.95;;;3.80;;
20802;SDS011;10562;-33.856;151.182;2024-03-23T11:48:38;7.55;;;4.05;;
20802;SDS011;10562;-33.856;151.182;2024-03-23T11:51:09;11.43;;;5.10;;
20802;SDS011;10562;-33.856;151.182;2024-03-23T11:53:38;9.07;;;4.10;;
20802;SDS011;10562;-33.856;151.182;2024-03-23T11:56:09;10.65;;;4.35;;
20802;SDS011;10562;-33.856;151.182;2024-03-23T11:58:40;7.30;;;4.03;;
20802;SDS011;10562;-33.856;151.182;2024-03-23T12:01:11;7.65;;;4.05;;
20802;SDS011;10562;-33.856;151.182;2024-03-23T12:03:43;7.47;;;4.28;;
20802;SDS011;10562;-33.856;151.182;2024-03-23T12:06:19;6.45;;;3.72;;
20802;SDS011;10562;-33.856;151.182;2024-03-23T12:08:48;7.00;;;3.80;;
20802;SDS011;10562;-33.856;151.182;2024-03-23T12:11:19;8.30;;;4.90;;
20802;SDS011;10562;-33.856;151.182;2024-03-23T12:13:50;7.05;;;3.90;;
20802;SDS011;10562;-33.856;151.182;2024-03-23T12:16:21;8.73;;;4.10;;
20802;SDS011;10562;-33.856;151.182;2024-03-23T12:18:53;8.55;;;3.88;;
20802;SDS011;10562;-33.856;151.182;2024-03-23T12:21:35;9.13;;;3.75;;
20802;SDS011;10562;-33.856;151.182;2024-03-23T12:24:04;5.80;;;4.00;;
20802;SDS011;10562;-33.856;151.182;2024-03-23T12:26:36;8.32;;;4.50;;
20802;SDS011;10562;-33.856;151.182;2024-03-23T12:29:08;10.98;;;4.20;;
20802;SDS011;10562;-33.856;151.182;2024-03-23T12:31:38;6.45;;;4.10;;
20802;SDS011;10562;-33.856;151.182;2024-03-23T12:34:07;7.70;;;4.45;;
20802;SDS011;10562;-33.856;151.182;2024-03-23T12:36:41;7.72;;;4.38;;
20802;SDS011;10562;-33.856;151.182;2024-03-23T12:39:10;10.93;;;4.60;;
20802;SDS011;10562;-33.856;151.182;2024-03-23T12:41:41;9.07;;;5.13;;
20802;SDS011;10562;-33.856;151.182;2024-03-23T12:44:12;7.68;;;4.35;;
20802;SDS011;10562;-33.856;151.182;2024-03-23T12:46:43;8.80;;;5.13;;
20802;SDS011;10562;-33.856;151.182;2024-03-23T12:49:13;7.55;;;4.38;;
20802;SDS011;10562;-33.856;151.182;2024-03-23T12:51:46;7.38;;;4.90;;
20802;SDS011;10562;-33.856;151.182;2024-03-23T12:54:21;9.85;;;4.88;;
20802;SDS011;10562;-33.856;151.182;2024-03-23T12:56:52;7.95;;;5.05;;
20802;SDS011;10562;-33.856;151.182;2024-03-23T12:59:24;7.72;;;4.90;;
20802;SDS011;10562;-33.856;151.182;2024-03-23T13:01:56;8.60;;;4.57;;
20802;SDS011;10562;-33.856;151.182;2024-03-23T13:04:26;10.13;;;4.50;;
20802;SDS011;10562;-33.856;151.182;2024-03-23T13:06:56;6.68;;;4.35;;
20802;SDS011;10562;-33.856;151.182;2024-03-23T13:09:26;7.97;;;4.93;;
20802;SDS011;10562;-33.856;151.182;2024-03-23T13:11:56;7.07;;;4.70;;
20802;SDS011;10562;-33.856;151.182;2024-03-23T13:14:27;10.20;;;4.45;;
20802;SDS011;10562;-33.856;151.182;2024-03-23T13:16:58;7.78;;;4.60;;
20802;SDS011;10562;-33.856;151.182;2024-03-23T13:19:28;9.10;;;4.50;;
20802;SDS011;10562;-33.856;151.182;2024-03-23T13:21:59;7.18;;;3.70;;
20802;SDS011;10562;-33.856;151.182;2024-03-23T13:24:29;7.18;;;4.15;;
20802;SDS011;10562;-33.856;151.182;2024-03-23T13:27:00;6.82;;;4.30;;
20802;SDS011;10562;-33.856;151.182;2024-03-23T13:29:32;7.35;;;4.03;;
20802;SDS011;10562;-33.856;151.182;2024-03-23T13:32:04;6.55;;;3.90;;
20802;SDS011;10562;-33.856;151.182;2024-03-23T13:34:33;6.65;;;4.00;;
20802;SDS011;10562;-33.856;151.182;2024-03-23T13:37:05;6.28;;;3.90;;
20802;SDS011;10562;-33.856;151.182;2024-03-23T13:39:34;10.80;;;4.15;;
20802;SDS011;10562;-33.856;151.182;2024-03-23T13:42:05;7.80;;;4.30;;
20802;SDS011;10562;-33.856;151.182;2024-03-23T13:44:37;7.90;;;4.40;;
20802;SDS011;10562;-33.856;151.182;2024-03-23T13:47:07;5.20;;;3.72;;
20802;SDS011;10562;-33.856;151.182;2024-03-23T13:49:37;5.85;;;3.88;;
20802;SDS011;10562;-33.856;151.182;2024-03-23T13:52:08;6.38;;;3.75;;
20802;SDS011;10562;-33.856;151.182;2024-03-23T13:54:37;5.57;;;3.80;;
20802;SDS011;10562;-33.856;151.182;2024-03-23T13:57:11;5.63;;;3.40;;
20802;SDS011;10562;-33.856;151.182;2024-03-23T13:59:42;8.13;;;3.40;;
20802;SDS011;10562;-33.856;151.182;2024-03-23T14:02:13;5.25;;;3.42;;
20802;SDS011;10562;-33.856;151.182;2024-03-23T14:04:42;9.88;;;3.70;;
20802;SDS011;10562;-33.856;151.182;2024-03-23T14:07:13;7.70;;;3.38;;
20802;SDS011;10562;-33.856;151.182;2024-03-23T14:09:44;7.30;;;3.30;;
20802;SDS011;10562;-33.856;151.182;2024-03-23T14:12:15;5.47;;;3.38;;
20802;SDS011;10562;-33.856;151.182;2024-03-23T14:14:46;7.43;;;3.80;;
20802;SDS011;10562;-33.856;151.182;2024-03-23T14:17:16;5.75;;;3.60;;
20802;SDS011;10562;-33.856;151.182;2024-03-23T14:19:46;7.32;;;3.78;;
20802;SDS011;10562;-33.856;151.182;2024-03-23T14:22:16;7.88;;;4.10;;
20802;SDS011;10562;-33.856;151.182;2024-03-23T14:24:48;8.95;;;4.60;;
20802;SDS011;10562;-33.856;151.182;2024-03-23T14:27:18;8.75;;;5.22;;
20802;SDS011;10562;-33.856;151.182;2024-03-23T14:29:50;8.80;;;4.68;;
20802;SDS011;10562;-33.856;151.182;2024-03-23T14:32:22;11.57;;;5.00;;
20802;SDS011;10562;-33.856;151.182;2024-03-23T14:34:52;8.32;;;7.22;;
20802;SDS011;10562;-33.856;151.182;2024-03-23T14:37:22;8.73;;;6.10;;
20802;SDS011;10562;-33.856;151.182;2024-03-23T14:39:52;11.13;;;5.82;;
20802;SDS011;10562;-33.856;151.182;2024-03-23T14:42:24;10.77;;;6.22;;
20802;SDS011;10562;-33.856;151.182;2024-03-23T14:44:55;10.02;;;5.93;;
20802;SDS011;10562;-33.856;151.182;2024-03-23T14:47:25;9.00;;;6.30;;
20802;SDS011;10562;-33.856;151.182;2024-03-23T14:49:55;9.95;;;6.38;;
20802;SDS011;10562;-33.856;151.182;2024-03-23T14:52:27;14.30;;;6.93;;
20802;SDS011;10562;-33.856;151.182;2024-03-23T14:54:56;10.02;;;6.82;;
20802;SDS011;10562;-33.856;151.182;2024-03-23T14:57:27;11.95;;;6.95;;
20802;SDS011;10562;-33.856;151.182;2024-03-23T14:59:58;11.90;;;7.07;;
20802;SDS011;10562;-33.856;151.182;2024-03-23T15:02:31;9.10;;;6.60;;
20802;SDS011;10562;-33.856;151.182;2024-03-23T15:05:00;9.50;;;7.10;;
20802;SDS011;10562;-33.856;151.182;2024-03-23T15:07:31;10.88;;;6.95;;
20802;SDS011;10562;-33.856;151.182;2024-03-23T15:10:00;8.35;;;7.40;;
20802;SDS011;10562;-33.856;151.182;2024-03-23T15:12:32;10.10;;;7.35;;
20802;SDS011;10562;-33.856;151.182;2024-03-23T15:15:03;10.10;;;6.40;;
20802;SDS011;10562;-33.856;151.182;2024-03-23T15:17:34;9.68;;;6.82;;
20802;SDS011;10562;-33.856;151.182;2024-03-23T15:20:10;10.38;;;7.50;;